Lipton, Canada
Current Conditions -  °F | °C
As of 1:00 PM on Sunday 23 Nov 2014 (Local Time) from CYQR Reporting Station
Blowing Snow Blowing Snow  
Wind Chill: -5°   Ceiling: Unl
Heat Index: 12°   Visibility: 15mi
Dew Point:   Wind: 17mph
Humidity: 85%   Direction: 310°NW
Pressure: 29.77"   Gusts: NA
Location:  50.9°N, 103.85°W
Report Text: CYQR 231900Z 31015KT 15SM DRSN FEW013 SCT260 M11/M13 A2977 RMK SC1CI3 SLP118
Loading
Personal Weather Stations






























Interactive Weather Map New forecast layout! Learn more

10-Day Weather Forecast

Advertisements
Track Severe Weather on mobile